sensor_id;sensor_type;location;lat;lon;timestamp;pressure;altitude;pressure_sealevel;temperature;humidity
11830;BME280;5972;42.134;24.718;2022-11-25T00:01:16;99309.78;;;10.79;78.84
11830;BME280;5972;42.134;24.718;2022-11-25T00:03:44;99313.72;;;10.82;78.67
11830;BME280;5972;42.134;24.718;2022-11-25T00:06:12;99290.41;;;10.77;78.83
11830;BME280;5972;42.134;24.718;2022-11-25T00:08:40;99300.44;;;10.77;79.89
11830;BME280;5972;42.134;24.718;2022-11-25T00:11:09;99281.34;;;10.70;79.72
11830;BME280;5972;42.134;24.718;2022-11-25T00:13:37;99297.31;;;10.75;79.81
11830;BME280;5972;42.134;24.718;2022-11-25T00:16:05;99301.03;;;10.70;80.02
11830;BME280;5972;42.134;24.718;2022-11-25T00:18:32;99273.47;;;10.49;79.35
11830;BME280;5972;42.134;24.718;2022-11-25T00:21:04;99306.91;;;10.72;79.35
11830;BME280;5972;42.134;24.718;2022-11-25T00:23:31;99298.44;;;10.58;80.08
11830;BME280;5972;42.134;24.718;2022-11-25T00:26:05;99299.25;;;10.59;79.78
11830;BME280;5972;42.134;24.718;2022-11-25T00:28:33;99301.31;;;10.65;80.37
11830;BME280;5972;42.134;24.718;2022-11-25T00:31:04;99305.06;;;10.61;80.10
11830;BME280;5972;42.134;24.718;2022-11-25T00:33:30;99300.53;;;10.65;80.08
11830;BME280;5972;42.134;24.718;2022-11-25T00:35:59;99299.66;;;10.61;80.61
11830;BME280;5972;42.134;24.718;2022-11-25T00:38:26;99301.84;;;10.55;81.58
11830;BME280;5972;42.134;24.718;2022-11-25T00:40:53;99296.09;;;10.57;80.79
11830;BME280;5972;42.134;24.718;2022-11-25T00:43:42;99309.53;;;10.69;80.04
11830;BME280;5972;42.134;24.718;2022-11-25T00:46:26;99294.34;;;10.64;78.57
11830;BME280;5972;42.134;24.718;2022-11-25T00:48:53;99301.56;;;10.60;77.69
11830;BME280;5972;42.134;24.718;2022-11-25T00:51:20;99300.38;;;10.73;77.04
11830;BME280;5972;42.134;24.718;2022-11-25T00:53:47;99306.66;;;10.62;77.76
11830;BME280;5972;42.134;24.718;2022-11-25T00:56:13;99293.28;;;10.69;77.77
11830;BME280;5972;42.134;24.718;2022-11-25T00:58:43;99304.53;;;10.71;76.06
11830;BME280;5972;42.134;24.718;2022-11-25T01:01:10;99300.69;;;10.72;75.83
11830;BME280;5972;42.134;24.718;2022-11-25T01:03:38;99295.03;;;10.61;74.29
11830;BME280;5972;42.134;24.718;2022-11-25T01:06:06;99304.13;;;10.69;73.06
11830;BME280;5972;42.134;24.718;2022-11-25T01:08:34;99312.25;;;10.69;72.79
11830;BME280;5972;42.134;24.718;2022-11-25T01:11:03;99309.16;;;10.70;72.04
11830;BME280;5972;42.134;24.718;2022-11-25T01:13:30;99308.31;;;10.66;71.88
11830;BME280;5972;42.134;24.718;2022-11-25T01:15:59;99313.81;;;10.70;71.55
11830;BME280;5972;42.134;24.718;2022-11-25T01:18:27;99309.00;;;10.63;71.67
11830;BME280;5972;42.134;24.718;2022-11-25T01:20:54;99321.47;;;10.68;71.59
11830;BME280;5972;42.134;24.718;2022-11-25T01:23:20;99310.66;;;10.68;70.79
11830;BME280;5972;42.134;24.718;2022-11-25T01:25:47;99315.56;;;10.62;70.00
11830;BME280;5972;42.134;24.718;2022-11-25T01:28:19;99313.91;;;10.58;70.71
11830;BME280;5972;42.134;24.718;2022-11-25T01:30:59;99317.13;;;10.63;70.00
11830;BME280;5972;42.134;24.718;2022-11-25T01:33:26;99308.13;;;10.59;69.67
11830;BME280;5972;42.134;24.718;2022-11-25T01:35:53;99321.81;;;10.66;69.66
11830;BME280;5972;42.134;24.718;2022-11-25T01:38:20;99312.06;;;10.62;71.17
11830;BME280;5972;42.134;24.718;2022-11-25T01:40:47;99313.72;;;10.66;71.47
11830;BME280;5972;42.134;24.718;2022-11-25T01:43:13;99318.00;;;10.52;72.40
11830;BME280;5972;42.134;24.718;2022-11-25T01:45:40;99314.69;;;10.58;70.73
11830;BME280;5972;42.134;24.718;2022-11-25T01:48:14;99319.72;;;10.60;70.47
11830;BME280;5972;42.134;24.718;2022-11-25T01:50:42;99314.69;;;10.58;70.70
11830;BME280;5972;42.134;24.718;2022-11-25T01:53:11;99322.81;;;10.58;71.54
11830;BME280;5972;42.134;24.718;2022-11-25T01:55:41;99324.28;;;10.56;72.04
11830;BME280;5972;42.134;24.718;2022-11-25T01:58:14;99327.56;;;10.49;72.66
11830;BME280;5972;42.134;24.718;2022-11-25T02:00:41;99318.00;;;10.52;73.33
11830;BME280;5972;42.134;24.718;2022-11-25T02:03:18;99327.69;;;10.53;73.66
11830;BME280;5972;42.134;24.718;2022-11-25T02:05:50;99328.69;;;10.48;74.06
11830;BME280;5972;42.134;24.718;2022-11-25T02:08:20;99336.06;;;10.48;74.61
11830;BME280;5972;42.134;24.718;2022-11-25T02:10:50;99312.66;;;10.39;75.23
11830;BME280;5972;42.134;24.718;2022-11-25T02:13:20;99324.06;;;10.49;75.12
11830;BME280;5972;42.134;24.718;2022-11-25T02:15:47;99321.81;;;10.51;75.15
11830;BME280;5972;42.134;24.718;2022-11-25T02:18:14;99318.25;;;10.47;75.28
11830;BME280;5972;42.134;24.718;2022-11-25T02:20:42;99322.16;;;10.49;75.45
11830;BME280;5972;42.134;24.718;2022-11-25T02:23:16;99305.91;;;10.33;75.48
11830;BME280;5972;42.134;24.718;2022-11-25T02:25:47;99314.91;;;10.37;76.07
11830;BME280;5972;42.134;24.718;2022-11-25T02:28:17;99335.53;;;10.42;75.39
11830;BME280;5972;42.134;24.718;2022-11-25T02:30:45;99325.91;;;10.45;75.97
11830;BME280;5972;42.134;24.718;2022-11-25T02:33:12;99331.91;;;10.38;75.85
11830;BME280;5972;42.134;24.718;2022-11-25T02:35:41;99324.94;;;10.37;75.27
11830;BME280;5972;42.134;24.718;2022-11-25T02:38:09;99329.84;;;10.47;74.88
11830;BME280;5972;42.134;24.718;2022-11-25T02:40:43;99322.53;;;10.48;74.45
11830;BME280;5972;42.134;24.718;2022-11-25T02:43:12;99326.38;;;10.47;73.78
11830;BME280;5972;42.134;24.718;2022-11-25T02:45:54;99322.53;;;10.48;73.04
11830;BME280;5972;42.134;24.718;2022-11-25T02:48:22;99322.88;;;10.46;73.21
11830;BME280;5972;42.134;24.718;2022-11-25T02:50:49;99314.13;;;10.37;72.67
11830;BME280;5972;42.134;24.718;2022-11-25T02:53:16;99323.66;;;10.47;72.21
11830;BME280;5972;42.134;24.718;2022-11-25T02:55:43;99332.84;;;10.58;72.10
11830;BME280;5972;42.134;24.718;2022-11-25T02:58:10;99319.13;;;10.51;71.66
11830;BME280;5972;42.134;24.718;2022-11-25T03:00:38;99319.97;;;10.55;70.01
11830;BME280;5972;42.134;24.718;2022-11-25T03:03:06;99330.28;;;10.65;69.47
11830;BME280;5972;42.134;24.718;2022-11-25T03:05:33;99334.03;;;10.60;70.03
11830;BME280;5972;42.134;24.718;2022-11-25T03:07:59;99305.41;;;10.43;69.81
11830;BME280;5972;42.134;24.718;2022-11-25T03:10:26;99331.00;;;10.62;69.59
11830;BME280;5972;42.134;24.718;2022-11-25T03:12:53;99332.56;;;10.63;69.70
11830;BME280;5972;42.134;24.718;2022-11-25T03:15:20;99331.34;;;10.60;69.72
11830;BME280;5972;42.134;24.718;2022-11-25T03:17:49;99332.22;;;10.64;69.80
11830;BME280;5972;42.134;24.718;2022-11-25T03:20:16;99335.94;;;10.60;69.39
11830;BME280;5972;42.134;24.718;2022-11-25T03:22:43;99334.50;;;10.62;69.68
11830;BME280;5972;42.134;24.718;2022-11-25T03:25:12;99333.50;;;10.55;69.15
11830;BME280;5972;42.134;24.718;2022-11-25T03:27:39;99333.16;;;10.56;69.16
11830;BME280;5972;42.134;24.718;2022-11-25T03:30:08;99337.44;;;10.57;69.23
11830;BME280;5972;42.134;24.718;2022-11-25T03:32:35;99335.28;;;10.63;69.10
11830;BME280;5972;42.134;24.718;2022-11-25T03:35:04;99339.91;;;10.62;69.15
11830;BME280;5972;42.134;24.718;2022-11-25T03:37:31;99331.88;;;10.66;68.97
11830;BME280;5972;42.134;24.718;2022-11-25T03:39:58;99299.19;;;10.43;68.79
11830;BME280;5972;42.134;24.718;2022-11-25T03:42:25;99321.41;;;10.64;68.85
11830;BME280;5972;42.134;24.718;2022-11-25T03:44:52;99318.19;;;10.59;68.81
11830;BME280;5972;42.134;24.718;2022-11-25T03:47:19;99306.09;;;10.40;68.54
11830;BME280;5972;42.134;24.718;2022-11-25T03:49:45;99335.25;;;10.47;68.79
11830;BME280;5972;42.134;24.718;2022-11-25T03:52:13;99340.25;;;10.61;69.23
11830;BME280;5972;42.134;24.718;2022-11-25T03:54:40;99344.19;;;10.63;68.65
11830;BME280;5972;42.134;24.718;2022-11-25T03:57:07;99341.56;;;10.67;67.97
11830;BME280;5972;42.134;24.718;2022-11-25T03:59:34;99350.53;;;10.71;67.90
11830;BME280;5972;42.134;24.718;2022-11-25T04:02:01;99345.84;;;10.68;67.84
11830;BME280;5972;42.134;24.718;2022-11-25T04:04:28;99352.38;;;10.67;68.15
11830;BME280;5972;42.134;24.718;2022-11-25T04:06:54;99347.75;;;10.67;68.23
11830;BME280;5972;42.134;24.718;2022-11-25T04:09:22;99345.22;;;10.59;68.59
11830;BME280;5972;42.134;24.718;2022-11-25T04:11:50;99356.47;;;10.61;68.54
11830;BME280;5972;42.134;24.718;2022-11-25T04:14:34;99351.50;;;10.63;67.91
11830;BME280;5972;42.134;24.718;2022-11-25T04:17:01;99351.84;;;10.61;67.33
11830;BME280;5972;42.134;24.718;2022-11-25T04:19:28;99358.13;;;10.65;67.27
11830;BME280;5972;42.134;24.718;2022-11-25T04:21:55;99354.56;;;10.61;66.70
11830;BME280;5972;42.134;24.718;2022-11-25T04:24:25;99372.03;;;10.64;66.09
11830;BME280;5972;42.134;24.718;2022-11-25T04:26:52;99363.91;;;10.64;66.49
11830;BME280;5972;42.134;24.718;2022-11-25T04:29:19;99368.09;;;10.61;66.69
11830;BME280;5972;42.134;24.718;2022-11-25T04:31:46;99367.56;;;10.56;66.78
11830;BME280;5972;42.134;24.718;2022-11-25T04:34:13;99355.47;;;10.37;68.16
11830;BME280;5972;42.134;24.718;2022-11-25T04:36:40;99377.44;;;10.64;67.79
11830;BME280;5972;42.134;24.718;2022-11-25T04:39:06;99372.59;;;10.41;68.08
11830;BME280;5972;42.134;24.718;2022-11-25T04:41:35;99380.22;;;10.52;68.02
11830;BME280;5972;42.134;24.718;2022-11-25T04:44:01;99381.06;;;10.56;67.01
11830;BME280;5972;42.134;24.718;2022-11-25T04:46:33;99394.59;;;10.56;67.23
11830;BME280;5972;42.134;24.718;2022-11-25T04:49:02;99395.72;;;10.55;66.89
11830;BME280;5972;42.134;24.718;2022-11-25T04:51:29;99394.59;;;10.56;67.51
11830;BME280;5972;42.134;24.718;2022-11-25T04:53:56;99393.81;;;10.55;68.00
11830;BME280;5972;42.134;24.718;2022-11-25T04:56:23;99381.59;;;10.46;68.57
11830;BME280;5972;42.134;24.718;2022-11-25T04:58:51;99372.34;;;10.47;68.67
11830;BME280;5972;42.134;24.718;2022-11-25T05:01:35;99398.19;;;10.60;69.36
11830;BME280;5972;42.134;24.718;2022-11-25T05:04:02;99403.25;;;10.61;69.80
11830;BME280;5972;42.134;24.718;2022-11-25T05:06:29;99410.75;;;10.52;70.82
11830;BME280;5972;42.134;24.718;2022-11-25T05:08:56;99402.00;;;10.43;71.24
11830;BME280;5972;42.134;24.718;2022-11-25T05:11:23;99407.06;;;10.45;70.52
11830;BME280;5972;42.134;24.718;2022-11-25T05:13:52;99412.00;;;10.42;69.77
11830;BME280;5972;42.134;24.718;2022-11-25T05:16:19;99404.06;;;10.34;70.35
11830;BME280;5972;42.134;24.718;2022-11-25T05:18:45;99424.66;;;10.38;70.33
11830;BME280;5972;42.134;24.718;2022-11-25T05:21:12;99430.38;;;10.49;69.09
11830;BME280;5972;42.134;24.718;2022-11-25T05:23:39;99440.22;;;10.41;69.18
11830;BME280;5972;42.134;24.718;2022-11-25T05:26:06;99437.81;;;10.52;67.30
11830;BME280;5972;42.134;24.718;2022-11-25T05:28:32;99399.81;;;10.21;66.13
11830;BME280;5972;42.134;24.718;2022-11-25T05:31:01;99444.09;;;10.56;65.88
11830;BME280;5972;42.134;24.718;2022-11-25T05:33:27;99426.06;;;10.48;66.42
11830;BME280;5972;42.134;24.718;2022-11-25T05:35:55;99422.06;;;10.42;65.79
11830;BME280;5972;42.134;24.718;2022-11-25T05:38:23;99434.31;;;10.52;65.41
11830;BME280;5972;42.134;24.718;2022-11-25T05:40:50;99457.38;;;10.61;66.20
11830;BME280;5972;42.134;24.718;2022-11-25T05:43:17;99460.00;;;10.58;66.92
11830;BME280;5972;42.134;24.718;2022-11-25T05:45:44;99477.19;;;10.65;66.93
11830;BME280;5972;42.134;24.718;2022-11-25T05:48:13;99437.84;;;10.40;66.73
11830;BME280;5972;42.134;24.718;2022-11-25T05:50:40;99488.91;;;10.69;67.02
11830;BME280;5972;42.134;24.718;2022-11-25T05:53:06;99491.88;;;10.64;67.98
11830;BME280;5972;42.134;24.718;2022-11-25T05:55:33;99480.69;;;10.66;68.44
11830;BME280;5972;42.134;24.718;2022-11-25T05:58:00;99492.84;;;10.72;68.32
11830;BME280;5972;42.134;24.718;2022-11-25T06:00:27;99474.00;;;10.48;68.66
11830;BME280;5972;42.134;24.718;2022-11-25T06:02:54;99493.16;;;10.70;68.42
11830;BME280;5972;42.134;24.718;2022-11-25T06:05:22;99496.25;;;10.69;68.04
11830;BME280;5972;42.134;24.718;2022-11-25T06:07:50;99511.09;;;10.75;68.56
11830;BME280;5972;42.134;24.718;2022-11-25T06:10:17;99516.59;;;10.78;68.33
11830;BME280;5972;42.134;24.718;2022-11-25T06:12:44;99513.81;;;10.75;69.26
11830;BME280;5972;42.134;24.718;2022-11-25T06:15:11;99507.19;;;10.60;69.59
11830;BME280;5972;42.134;24.718;2022-11-25T06:17:38;99472.69;;;10.41;69.39
11830;BME280;5972;42.134;24.718;2022-11-25T06:20:06;99513.84;;;10.63;70.21
11830;BME280;5972;42.134;24.718;2022-11-25T06:22:35;99536.72;;;10.65;70.81
11830;BME280;5972;42.134;24.718;2022-11-25T06:25:01;99541.88;;;10.70;70.43
11830;BME280;5972;42.134;24.718;2022-11-25T06:27:28;99544.91;;;10.81;70.03
11830;BME280;5972;42.134;24.718;2022-11-25T06:29:55;99538.59;;;10.77;70.25
11830;BME280;5972;42.134;24.718;2022-11-25T06:32:22;99544.66;;;10.86;68.68
11830;BME280;5972;42.134;24.718;2022-11-25T06:34:49;99549.97;;;10.82;69.68
11830;BME280;5972;42.134;24.718;2022-11-25T06:37:16;99531.66;;;10.64;69.54
11830;BME280;5972;42.134;24.718;2022-11-25T06:39:44;99567.66;;;10.92;68.78
11830;BME280;5972;42.134;24.718;2022-11-25T06:42:11;99571.84;;;10.77;70.00
11830;BME280;5972;42.134;24.718;2022-11-25T06:44:37;99577.47;;;10.84;69.46
11830;BME280;5972;42.134;24.718;2022-11-25T06:47:04;99569.03;;;10.86;68.24
11830;BME280;5972;42.134;24.718;2022-11-25T06:49:31;99580.94;;;10.97;67.50
11830;BME280;5972;42.134;24.718;2022-11-25T06:51:58;99584.31;;;10.94;66.98
11830;BME280;5972;42.134;24.718;2022-11-25T06:54:25;99539.25;;;10.58;67.30
11830;BME280;5972;42.134;24.718;2022-11-25T06:56:53;99580.97;;;10.85;66.99
11830;BME280;5972;42.134;24.718;2022-11-25T06:59:20;99584.88;;;11.00;65.70
11830;BME280;5972;42.134;24.718;2022-11-25T07:01:47;99588.31;;;10.84;65.68
11830;BME280;5972;42.134;24.718;2022-11-25T07:04:14;99604.59;;;11.00;65.56
11830;BME280;5972;42.134;24.718;2022-11-25T07:06:40;99600.63;;;11.10;64.99
11830;BME280;5972;42.134;24.718;2022-11-25T07:09:07;99584.31;;;10.94;65.72
11830;BME280;5972;42.134;24.718;2022-11-25T07:11:35;99589.84;;;10.98;66.35
11830;BME280;5972;42.134;24.718;2022-11-25T07:14:06;99597.44;;;10.92;66.55
11830;BME280;5972;42.134;24.718;2022-11-25T07:16:33;99614.75;;;11.03;67.33
11830;BME280;5972;42.134;24.718;2022-11-25T07:19:01;99612.97;;;10.95;67.90
11830;BME280;5972;42.134;24.718;2022-11-25T07:21:30;99618.84;;;10.97;67.84
11830;BME280;5972;42.134;24.718;2022-11-25T07:23:58;99616.38;;;10.92;68.53
11830;BME280;5972;42.134;24.718;2022-11-25T07:26:27;99609.94;;;10.97;68.22
11830;BME280;5972;42.134;24.718;2022-11-25T07:28:57;99612.94;;;11.07;68.44
11830;BME280;5972;42.134;24.718;2022-11-25T07:31:28;99622.44;;;11.01;68.43
11830;BME280;5972;42.134;24.718;2022-11-25T07:33:56;99619.97;;;10.96;69.10
11830;BME280;5972;42.134;24.718;2022-11-25T07:36:24;99608.09;;;11.01;69.06
11830;BME280;5972;42.134;24.718;2022-11-25T07:38:51;99620.31;;;10.95;69.72
11830;BME280;5972;42.134;24.718;2022-11-25T07:41:20;99627.09;;;10.89;68.87
11830;BME280;5972;42.134;24.718;2022-11-25T07:43:50;99626.19;;;10.84;69.41
11830;BME280;5972;42.134;24.718;2022-11-25T07:46:19;99639.25;;;10.95;68.84
11830;BME280;5972;42.134;24.718;2022-11-25T07:48:48;99627.31;;;10.96;68.01
11830;BME280;5972;42.134;24.718;2022-11-25T07:51:16;99623.44;;;11.09;66.92
11830;BME280;5972;42.134;24.718;2022-11-25T07:53:43;99643.31;;;11.29;65.38
11830;BME280;5972;42.134;24.718;2022-11-25T07:56:11;99652.53;;;11.40;64.26
11830;BME280;5972;42.134;24.718;2022-11-25T07:58:40;99645.63;;;11.42;62.89
11830;BME280;5972;42.134;24.718;2022-11-25T08:01:09;99631.69;;;11.28;62.89
11830;BME280;5972;42.134;24.718;2022-11-25T08:03:40;99660.75;;;11.43;62.33
11830;BME280;5972;42.134;24.718;2022-11-25T08:06:11;99653.50;;;11.47;62.18
11830;BME280;5972;42.134;24.718;2022-11-25T08:08:39;99637.59;;;11.46;61.04
11830;BME280;5972;42.134;24.718;2022-11-25T08:11:06;99661.50;;;11.72;60.26
11830;BME280;5972;42.134;24.718;2022-11-25T08:13:34;99660.63;;;11.67;60.16
11830;BME280;5972;42.134;24.718;2022-11-25T08:16:01;99656.38;;;11.82;59.51
11830;BME280;5972;42.134;24.718;2022-11-25T08:18:28;99672.69;;;11.98;58.71
11830;BME280;5972;42.134;24.718;2022-11-25T08:20:58;99653.44;;;12.03;58.80
11830;BME280;5972;42.134;24.718;2022-11-25T08:23:26;99674.50;;;12.41;57.10
11830;BME280;5972;42.134;24.718;2022-11-25T08:25:53;99653.84;;;12.52;55.53
11830;BME280;5972;42.134;24.718;2022-11-25T08:28:26;99667.69;;;13.36;53.04
11830;BME280;5972;42.134;24.718;2022-11-25T08:31:00;99658.75;;;13.78;50.66
11830;BME280;5972;42.134;24.718;2022-11-25T08:33:27;99660.84;;;15.12;47.95
11830;BME280;5972;42.134;24.718;2022-11-25T08:35:54;99666.09;;;16.42;44.12
11830;BME280;5972;42.134;24.718;2022-11-25T08:38:21;99658.84;;;17.51;41.18
11830;BME280;5972;42.134;24.718;2022-11-25T08:40:49;99665.66;;;18.42;39.40
11830;BME280;5972;42.134;24.718;2022-11-25T08:43:16;99659.75;;;18.82;37.77
11830;BME280;5972;42.134;24.718;2022-11-25T08:45:45;99667.13;;;19.03;36.09
11830;BME280;5972;42.134;24.718;2022-11-25T08:48:13;99659.22;;;19.26;35.98
11830;BME280;5972;42.134;24.718;2022-11-25T08:50:40;99665.03;;;19.35;34.21
11830;BME280;5972;42.134;24.718;2022-11-25T08:53:08;99647.19;;;18.92;34.59
11830;BME280;5972;42.134;24.718;2022-11-25T08:55:35;99677.44;;;19.72;34.37
11830;BME280;5972;42.134;24.718;2022-11-25T08:58:05;99669.28;;;20.16;32.87
11830;BME280;5972;42.134;24.718;2022-11-25T09:00:34;99671.94;;;20.27;32.56
11830;BME280;5972;42.134;24.718;2022-11-25T09:03:01;99657.44;;;20.26;32.12
11830;BME280;5972;42.134;24.718;2022-11-25T09:05:28;99666.78;;;20.36;31.88
11830;BME280;5972;42.134;24.718;2022-11-25T09:08:00;99662.38;;;20.49;31.59
11830;BME280;5972;42.134;24.718;2022-11-25T09:10:27;99678.59;;;19.78;32.12
11830;BME280;5972;42.134;24.718;2022-11-25T09:12:54;99655.56;;;19.50;32.61
11830;BME280;5972;42.134;24.718;2022-11-25T09:15:22;99663.78;;;19.58;32.60
11830;BME280;5972;42.134;24.718;2022-11-25T09:17:56;99648.88;;;19.59;32.36
11830;BME280;5972;42.134;24.718;2022-11-25T09:20:24;99659.06;;;20.20;32.03
11830;BME280;5972;42.134;24.718;2022-11-25T09:22:50;99664.63;;;20.10;31.85
11830;BME280;5972;42.134;24.718;2022-11-25T09:25:20;99679.50;;;19.54;32.20
11830;BME280;5972;42.134;24.718;2022-11-25T09:27:55;99668.16;;;19.48;32.16
11830;BME280;5972;42.134;24.718;2022-11-25T09:30:24;99667.81;;;20.01;31.14
11830;BME280;5972;42.134;24.718;2022-11-25T09:32:52;99661.63;;;19.93;30.34
11830;BME280;5972;42.134;24.718;2022-11-25T09:35:20;99672.53;;;20.04;30.14
11830;BME280;5972;42.134;24.718;2022-11-25T09:37:47;99653.81;;;19.88;30.19
11830;BME280;5972;42.134;24.718;2022-11-25T09:40:17;99675.31;;;19.14;31.30
11830;BME280;5972;42.134;24.718;2022-11-25T09:42:48;99666.78;;;18.80;31.91
11830;BME280;5972;42.134;24.718;2022-11-25T09:45:42;99659.75;;;18.50;32.38
11830;BME280;5972;42.134;24.718;2022-11-25T09:48:53;99679.56;;;19.32;31.55
11830;BME280;5972;42.134;24.718;2022-11-25T09:51:25;99666.50;;;19.65;30.84
11830;BME280;5972;42.134;24.718;2022-11-25T09:54:05;99660.06;;;20.41;29.96
11830;BME280;5972;42.134;24.718;2022-11-25T09:56:35;99647.63;;;20.70;29.33
11830;BME280;5972;42.134;24.718;2022-11-25T09:59:06;99639.25;;;20.43;29.90
11830;BME280;5972;42.134;24.718;2022-11-25T10:01:45;99644.56;;;20.98;29.22
11830;BME280;5972;42.134;24.718;2022-11-25T10:04:17;99657.72;;;20.84;29.29
11830;BME280;5972;42.134;24.718;2022-11-25T10:06:49;99645.81;;;20.94;29.02
11830;BME280;5972;42.134;24.718;2022-11-25T10:09:22;99640.72;;;20.92;29.00
11830;BME280;5972;42.134;24.718;2022-11-25T10:11:51;99644.44;;;21.09;29.03
11830;BME280;5972;42.134;24.718;2022-11-25T10:14:27;99640.72;;;21.56;28.37
11830;BME280;5972;42.134;24.718;2022-11-25T10:17:03;99648.78;;;21.40;28.40
11830;BME280;5972;42.134;24.718;2022-11-25T10:19:47;99644.81;;;21.11;28.11
11830;BME280;5972;42.134;24.718;2022-11-25T10:22:26;99649.13;;;20.78;28.59
11830;BME280;5972;42.134;24.718;2022-11-25T10:24:57;99645.31;;;20.20;29.20
11830;BME280;5972;42.134;24.718;2022-11-25T10:27:29;99644.13;;;20.18;29.26
11830;BME280;5972;42.134;24.718;2022-11-25T10:30:03;99636.69;;;20.22;29.43
11830;BME280;5972;42.134;24.718;2022-11-25T10:32:37;99628.28;;;20.40;29.06
11830;BME280;5972;42.134;24.718;2022-11-25T10:35:14;99641.97;;;19.99;29.22
11830;BME280;5972;42.134;24.718;2022-11-25T10:37:46;99641.00;;;19.64;29.58
11830;BME280;5972;42.134;24.718;2022-11-25T10:40:19;99640.41;;;19.94;29.84
11830;BME280;5972;42.134;24.718;2022-11-25T10:42:46;99646.53;;;20.12;29.54
11830;BME280;5972;42.134;24.718;2022-11-25T10:45:13;99647.53;;;19.84;29.29
11830;BME280;5972;42.134;24.718;2022-11-25T10:48:05;99651.75;;;19.27;30.46
11830;BME280;5972;42.134;24.718;2022-11-25T10:50:40;99634.59;;;19.08;30.53
11830;BME280;5972;42.134;24.718;2022-11-25T10:53:16;99630.53;;;19.34;30.56
11830;BME280;5972;42.134;24.718;2022-11-25T10:55:57;99628.41;;;18.83;31.62
11830;BME280;5972;42.134;24.718;2022-11-25T10:58:27;99641.41;;;18.54;31.75
11830;BME280;5972;42.134;24.718;2022-11-25T11:01:03;99641.38;;;18.22;32.18
11830;BME280;5972;42.134;24.718;2022-11-25T11:03:32;99645.66;;;17.74;32.93
11830;BME280;5972;42.134;24.718;2022-11-25T11:05:58;99632.34;;;17.62;33.03
11830;BME280;5972;42.134;24.718;2022-11-25T11:08:27;99635.41;;;17.42;33.52
11830;BME280;5972;42.134;24.718;2022-11-25T11:11:14;99643.19;;;17.40;33.54
11830;BME280;5972;42.134;24.718;2022-11-25T11:13:41;99651.41;;;17.37;33.65
11830;BME280;5972;42.134;24.718;2022-11-25T11:16:31;99642.41;;;17.33;33.40
11830;BME280;5972;42.134;24.718;2022-11-25T11:19:01;99646.69;;;17.30;33.91
11830;BME280;5972;42.134;24.718;2022-11-25T11:21:29;99634.44;;;16.92;34.47
11830;BME280;5972;42.134;24.718;2022-11-25T11:23:57;99649.34;;;17.09;34.23
11830;BME280;5972;42.134;24.718;2022-11-25T11:26:27;99643.09;;;17.09;34.43
11830;BME280;5972;42.134;24.718;2022-11-25T11:29:05;99610.56;;;16.82;34.14
11830;BME280;5972;42.134;24.718;2022-11-25T11:31:34;99604.31;;;16.85;34.67
11830;BME280;5972;42.134;24.718;2022-11-25T11:34:22;99646.44;;;16.77;35.23
11830;BME280;5972;42.134;24.718;2022-11-25T11:37:09;99640.16;;;16.73;35.52
11830;BME280;5972;42.134;24.718;2022-11-25T11:40:13;99645.31;;;16.82;35.49
11830;BME280;5972;42.134;24.718;2022-11-25T11:43:05;99642.22;;;16.90;35.35
11830;BME280;5972;42.134;24.718;2022-11-25T11:45:48;99639.84;;;16.89;35.24
11830;BME280;5972;42.134;24.718;2022-11-25T11:48:23;99631.94;;;16.66;34.92
11830;BME280;5972;42.134;24.718;2022-11-25T11:51:00;99638.06;;;16.56;35.40
11830;BME280;5972;42.134;24.718;2022-11-25T11:53:30;99640.09;;;16.62;35.57
11830;BME280;5972;42.134;24.718;2022-11-25T11:56:05;99639.22;;;16.51;36.04
11830;BME280;5972;42.134;24.718;2022-11-25T11:58:45;99652.88;;;16.51;35.59
11830;BME280;5972;42.134;24.718;2022-11-25T12:01:39;99645.31;;;16.27;35.50
11830;BME280;5972;42.134;24.718;2022-11-25T12:04:15;99654.25;;;16.28;35.66
11830;BME280;5972;42.134;24.718;2022-11-25T12:06:56;99614.00;;;16.14;35.61
11830;BME280;5972;42.134;24.718;2022-11-25T12:09:27;99637.25;;;15.97;35.85
11830;BME280;5972;42.134;24.718;2022-11-25T12:12:01;99660.41;;;16.17;35.94
11830;BME280;5972;42.134;24.718;2022-11-25T12:14:37;99624.97;;;16.21;36.07
11830;BME280;5972;42.134;24.718;2022-11-25T12:17:16;99624.16;;;16.17;35.88
11830;BME280;5972;42.134;24.718;2022-11-25T12:19:55;99663.41;;;16.49;35.86
11830;BME280;5972;42.134;24.718;2022-11-25T12:22:51;99604.66;;;16.15;35.77
11830;BME280;5972;42.134;24.718;2022-11-25T12:25:39;99643.44;;;16.38;35.94
11830;BME280;5972;42.134;24.718;2022-11-25T12:28:10;99666.63;;;16.62;35.99
11830;BME280;5972;42.134;24.718;2022-11-25T12:30:49;99658.53;;;16.25;36.36
11830;BME280;5972;42.134;24.718;2022-11-25T12:33:21;99676.44;;;16.19;36.44
11830;BME280;5972;42.134;24.718;2022-11-25T12:35:54;99666.06;;;15.95;36.56
11830;BME280;5972;42.134;24.718;2022-11-25T12:38:31;99684.06;;;15.99;36.33
11830;BME280;5972;42.134;24.718;2022-11-25T12:41:08;99691.75;;;15.90;37.01
11830;BME280;5972;42.134;24.718;2022-11-25T12:43:57;99681.34;;;15.99;36.92
11830;BME280;5972;42.134;24.718;2022-11-25T12:46:42;99695.44;;;16.08;37.20
11830;BME280;5972;42.134;24.718;2022-11-25T12:49:17;99693.84;;;16.04;37.33
11830;BME280;5972;42.134;24.718;2022-11-25T12:52:16;99668.59;;;15.73;37.01
11830;BME280;5972;42.134;24.718;2022-11-25T12:55:03;99682.41;;;15.91;37.32
11830;BME280;5972;42.134;24.718;2022-11-25T13:01:07;99704.47;;;15.75;37.57
11830;BME280;5972;42.134;24.718;2022-11-25T13:03:54;99708.66;;;15.66;37.46
11830;BME280;5972;42.134;24.718;2022-11-25T13:06:58;99667.41;;;15.37;37.49
11830;BME280;5972;42.134;24.718;2022-11-25T13:09:49;99687.00;;;15.50;37.71
11830;BME280;5972;42.134;24.718;2022-11-25T13:12:34;99702.81;;;15.67;37.64
11830;BME280;5972;42.134;24.718;2022-11-25T13:15:21;99695.94;;;15.47;37.97
11830;BME280;5972;42.134;24.718;2022-11-25T13:17:55;99706.72;;;15.36;38.23
11830;BME280;5972;42.134;24.718;2022-11-25T13:20:34;99701.13;;;15.26;38.80
11830;BME280;5972;42.134;24.718;2022-11-25T13:23:07;99703.69;;;15.45;38.87